createdAt,value
2019-06-08T00:00:30.891Z,8.47
2019-06-08T00:02:59.947Z,9.07
2019-06-08T00:05:27.957Z,8.03
2019-06-08T00:07:55.005Z,7.93
2019-06-08T00:10:25.226Z,8.00
2019-06-08T00:12:53.045Z,9.07
2019-06-08T00:15:20.320Z,9.97
2019-06-08T00:17:47.320Z,8.47
2019-06-08T00:20:15.415Z,9.20
2019-06-08T00:22:42.614Z,8.13
2019-06-08T00:25:11.707Z,8.90
2019-06-08T00:27:39.435Z,9.27
2019-06-08T00:30:06.463Z,7.70
2019-06-08T00:32:33.146Z,8.73
2019-06-08T00:34:59.891Z,8.60
2019-06-08T00:37:28.492Z,8.80
2019-06-08T00:39:55.327Z,8.60
2019-06-08T00:42:23.316Z,7.70
2019-06-08T00:44:50.128Z,8.27
2019-06-08T00:47:16.888Z,9.53
2019-06-08T00:49:46.471Z,9.77
2019-06-08T00:52:13.086Z,9.00
2019-06-08T00:54:39.719Z,8.93
2019-06-08T00:57:12.114Z,9.60
2019-06-08T00:59:44.600Z,10.70
2019-06-08T01:02:11.919Z,10.70
2019-06-08T01:04:39.924Z,10.57
2019-06-08T01:07:07.171Z,9.80
2019-06-08T01:09:33.836Z,10.27
2019-06-08T01:12:01.177Z,10.63
2019-06-08T01:14:29.852Z,10.20
2019-06-08T01:16:57.318Z,10.20
2019-06-08T01:19:25.194Z,11.60
2019-06-08T01:21:52.439Z,12.20
2019-06-08T01:24:19.759Z,11.50
2019-06-08T01:26:47.545Z,10.83
2019-06-08T01:29:14.191Z,11.33
2019-06-08T01:31:41.233Z,11.40
2019-06-08T01:34:08.613Z,10.73
2019-06-08T01:36:35.983Z,10.60
2019-06-08T01:39:04.436Z,11.57
2019-06-08T01:41:31.971Z,11.77
2019-06-08T01:43:59.759Z,11.20
2019-06-08T01:46:26.503Z,10.50
2019-06-08T01:48:53.890Z,12.40
2019-06-08T01:51:22.447Z,11.67
2019-06-08T01:53:49.261Z,11.50
2019-06-08T01:56:16.332Z,11.40
2019-06-08T01:58:43.068Z,10.10
2019-06-08T02:01:09.804Z,11.00
2019-06-08T02:03:36.796Z,10.63
2019-06-08T02:06:06.439Z,11.30
2019-06-08T02:08:33.075Z,10.73
2019-06-08T02:10:59.724Z,10.50
2019-06-08T02:13:33.109Z,11.47
2019-06-08T02:16:00.671Z,10.90
2019-06-08T02:18:39.388Z,10.23
2019-06-08T02:20:57.763Z,9.53
2019-06-08T02:23:24.791Z,8.70
2019-06-08T02:25:55.719Z,8.50
2019-06-08T02:28:22.975Z,9.10
2019-06-08T02:30:49.619Z,8.33
2019-06-08T02:33:16.655Z,8.60
2019-06-08T02:35:43.718Z,8.57
2019-06-08T02:38:10.781Z,8.80
2019-06-08T02:40:37.828Z,7.83
2019-06-08T02:43:04.748Z,8.07
2019-06-08T02:45:31.995Z,7.60
2019-06-08T02:48:00.481Z,6.57
2019-06-08T02:50:42.849Z,7.77
2019-06-08T02:53:10.828Z,5.93
2019-06-08T02:55:39.448Z,6.33
2019-06-08T02:58:07.672Z,7.00
2019-06-08T03:00:35.480Z,5.57
2019-06-08T03:03:03.151Z,6.10
2019-06-08T03:05:33.991Z,5.80
2019-06-08T03:08:01.700Z,6.13
2019-06-08T03:10:28.525Z,5.43
2019-06-08T03:12:55.748Z,4.73
2019-06-08T03:15:28.518Z,4.43
2019-06-08T03:17:55.260Z,5.00
2019-06-08T03:20:22.303Z,5.00
2019-06-08T03:22:50.698Z,4.90
2019-06-08T03:25:17.407Z,5.27
2019-06-08T03:27:44.031Z,5.03
2019-06-08T03:30:16.975Z,4.70
2019-06-08T03:32:47.288Z,4.47
2019-06-08T03:35:08.143Z,3.97
2019-06-08T03:37:35.772Z,4.20
2019-06-08T03:40:04.592Z,5.00
2019-06-08T03:42:31.584Z,4.37
2019-06-08T03:44:58.213Z,4.23
2019-06-08T03:47:25.358Z,4.10
2019-06-08T03:49:57.350Z,3.60
2019-06-08T03:52:23.436Z,3.90
2019-06-08T03:54:51.608Z,3.20
2019-06-08T03:57:18.865Z,3.27
2019-06-08T03:59:47.664Z,3.37
2019-06-08T04:02:14.447Z,2.80
2019-06-08T04:04:41.856Z,2.73
2019-06-08T04:07:10.028Z,2.83
2019-06-08T04:09:37.761Z,3.53
2019-06-08T04:12:06.100Z,2.67
2019-06-08T04:14:33.016Z,2.93
2019-06-08T04:16:59.650Z,3.17
2019-06-08T04:19:27.483Z,2.53
2019-06-08T04:21:54.107Z,2.63
2019-06-08T04:24:21.116Z,3.90
2019-06-08T04:26:48.035Z,2.90
2019-06-08T04:29:15.283Z,2.10
2019-06-08T04:31:43.892Z,2.03
2019-06-08T04:34:17.105Z,2.30
2019-06-08T04:36:46.321Z,2.90
2019-06-08T04:39:13.882Z,1.70
2019-06-08T04:41:41.122Z,2.00
2019-06-08T04:44:09.239Z,2.03
2019-06-08T04:46:35.877Z,1.93
2019-06-08T04:49:02.504Z,2.03
2019-06-08T04:51:31.516Z,2.20
2019-06-08T04:53:58.236Z,2.10
2019-06-08T04:56:25.196Z,2.00
2019-06-08T04:58:51.822Z,2.27
2019-06-08T05:01:19.099Z,2.63
2019-06-08T05:03:47.765Z,2.33
2019-06-08T05:06:15.362Z,1.70
2019-06-08T05:08:43.087Z,1.80
2019-06-08T05:11:10.307Z,1.47
2019-06-08T05:13:36.944Z,1.70
2019-06-08T05:16:03.770Z,2.40
2019-06-08T05:18:31.002Z,1.60
2019-06-08T05:20:58.744Z,1.60
2019-06-08T05:23:25.356Z,2.00
2019-06-08T05:25:52.008Z,1.53
2019-06-08T05:28:18.983Z,1.73
2019-06-08T05:30:45.636Z,1.10
2019-06-08T05:33:12.257Z,1.63
2019-06-08T05:35:39.395Z,1.40
2019-06-08T05:38:06.241Z,1.63
2019-06-08T05:40:33.683Z,1.30
2019-06-08T05:43:00.935Z,1.53
2019-06-08T05:45:27.715Z,1.70
2019-06-08T05:47:54.435Z,1.80
2019-06-08T05:50:22.929Z,1.40
2019-06-08T05:52:50.542Z,1.60
2019-06-08T05:55:17.338Z,1.50
2019-06-08T05:57:44.263Z,1.33
2019-06-08T06:00:12.069Z,1.40
2019-06-08T06:02:40.197Z,1.30
2019-06-08T06:05:07.570Z,1.40
2019-06-08T06:07:34.528Z,1.00
2019-06-08T06:10:01.318Z,1.43
2019-06-08T06:12:28.289Z,1.47
2019-06-08T06:14:55.346Z,1.53
2019-06-08T06:17:22.458Z,1.20
2019-06-08T06:19:49.410Z,1.57
2019-06-08T06:22:17.787Z,1.47
2019-06-08T06:24:49.728Z,1.43
2019-06-08T06:27:17.310Z,1.47
2019-06-08T06:29:43.954Z,1.17
2019-06-08T06:32:12.123Z,1.10
2019-06-08T06:34:39.163Z,0.83
2019-06-08T06:37:06.108Z,1.13
2019-06-08T06:39:32.850Z,1.20
2019-06-08T06:41:59.466Z,1.07
2019-06-08T06:44:26.115Z,1.37
2019-06-08T06:46:53.171Z,1.20
2019-06-08T06:49:20.367Z,1.20
2019-06-08T06:51:48.402Z,1.20
2019-06-08T06:54:17.083Z,1.47
2019-06-08T06:56:46.971Z,1.40
2019-06-08T06:59:14.139Z,1.13
2019-06-08T07:01:40.877Z,1.60
2019-06-08T07:04:10.084Z,1.20
2019-06-08T07:06:37.539Z,1.40
2019-06-08T07:09:06.019Z,0.90
2019-06-08T07:11:33.172Z,1.13
2019-06-08T07:14:00.111Z,2.13
2019-06-08T07:16:27.161Z,1.00
2019-06-08T07:18:54.517Z,0.90
2019-06-08T07:21:21.972Z,1.83
2019-06-08T07:23:50.865Z,1.27
2019-06-08T07:26:18.728Z,1.80
2019-06-08T07:28:46.253Z,1.00
2019-06-08T07:31:14.659Z,1.03
2019-06-08T07:33:41.550Z,1.40
2019-06-08T07:36:08.560Z,1.03
2019-06-08T07:38:35.271Z,1.10
2019-06-08T07:41:02.118Z,2.00
2019-06-08T07:43:28.785Z,1.17
2019-06-08T07:45:56.285Z,1.10
2019-06-08T07:48:23.600Z,1.20
2019-06-08T07:50:50.747Z,1.17
2019-06-08T07:53:18.354Z,1.67
2019-06-08T07:55:45.690Z,1.43
2019-06-08T07:58:12.801Z,1.93
2019-06-08T08:00:39.775Z,1.40
2019-06-08T08:03:06.912Z,0.90
2019-06-08T08:05:34.243Z,1.70
2019-06-08T08:08:02.677Z,1.37
2019-06-08T08:10:29.723Z,1.20
2019-06-08T08:12:56.825Z,1.50
2019-06-08T08:15:23.987Z,1.20
2019-06-08T08:17:52.603Z,1.63
2019-06-08T08:20:20.826Z,1.20
2019-06-08T08:22:52.596Z,1.17
2019-06-08T08:25:18.293Z,1.70
2019-06-08T08:27:47.817Z,1.70
2019-06-08T08:30:17.307Z,1.23
2019-06-08T08:32:44.619Z,1.17
2019-06-08T08:35:15.630Z,1.20
2019-06-08T08:37:42.962Z,0.93
2019-06-08T08:40:09.857Z,1.60
2019-06-08T08:42:38.667Z,1.67
2019-06-08T08:45:08.670Z,1.13
2019-06-08T08:47:38.428Z,1.43
2019-06-08T08:50:07.296Z,1.37
2019-06-08T08:52:39.865Z,1.40
2019-06-08T08:55:04.499Z,1.60
2019-06-08T08:57:31.331Z,1.40
2019-06-08T09:00:02.793Z,1.07
2019-06-08T09:02:27.736Z,1.30
2019-06-08T09:04:55.266Z,1.40
2019-06-08T09:07:22.528Z,1.60
2019-06-08T09:09:53.604Z,1.17
2019-06-08T09:12:20.878Z,1.43
2019-06-08T09:14:48.322Z,2.27
2019-06-08T09:17:18.081Z,1.50
2019-06-08T09:19:48.122Z,1.03
2019-06-08T09:22:18.622Z,1.23
2019-06-08T09:24:45.565Z,1.50
2019-06-08T09:27:12.988Z,1.80
2019-06-08T09:29:44.227Z,1.10
2019-06-08T09:32:10.997Z,0.97
2019-06-08T09:34:38.647Z,1.30
2019-06-08T09:37:07.983Z,1.20
2019-06-08T09:39:34.464Z,1.47
2019-06-08T09:42:03.065Z,2.70
2019-06-08T09:44:29.948Z,1.50
2019-06-08T09:47:01.988Z,1.90
2019-06-08T09:49:28.052Z,1.70
2019-06-08T09:51:56.494Z,1.60
2019-06-08T09:54:24.843Z,1.70
2019-06-08T09:56:51.608Z,1.57
2019-06-08T09:59:19.804Z,1.57
2019-06-08T10:01:47.088Z,2.03
2019-06-08T10:04:15.099Z,1.30
2019-06-08T10:06:42.081Z,1.77
2019-06-08T10:09:12.053Z,1.77
2019-06-08T10:11:39.304Z,1.83
2019-06-08T10:14:11.645Z,1.60
2019-06-08T10:16:37.973Z,1.77
2019-06-08T10:19:07.088Z,1.63
2019-06-08T10:21:33.424Z,1.50
2019-06-08T10:24:04.398Z,1.67
2019-06-08T10:26:30.659Z,1.83
2019-06-08T10:29:00.332Z,1.80
2019-06-08T10:31:36.518Z,2.20
2019-06-08T10:33:59.471Z,1.60
2019-06-08T10:36:24.471Z,2.83
2019-06-08T10:38:53.211Z,3.60
2019-06-08T10:41:21.872Z,2.60
2019-06-08T10:43:48.472Z,2.10
2019-06-08T10:46:19.938Z,1.93
2019-06-08T10:48:43.727Z,2.37
2019-06-08T10:51:12.990Z,2.17
2019-06-08T10:53:52.021Z,3.27
2019-06-08T10:56:10.439Z,2.40
2019-06-08T10:58:37.193Z,2.10
2019-06-08T11:01:07.826Z,1.77
2019-06-08T11:03:33.841Z,2.00
2019-06-08T11:06:01.294Z,2.67
2019-06-08T11:08:29.612Z,2.00
2019-06-08T11:10:57.867Z,2.20
2019-06-08T11:13:24.888Z,1.90
2019-06-08T11:15:52.116Z,1.73
2019-06-08T11:18:18.960Z,1.93
2019-06-08T11:20:47.909Z,2.73
2019-06-08T11:23:14.409Z,2.30
2019-06-08T11:25:43.046Z,2.93
2019-06-08T11:28:14.990Z,2.20
2019-06-08T11:30:41.464Z,1.77
2019-06-08T11:33:11.223Z,2.00
2019-06-08T11:35:38.395Z,2.27
2019-06-08T11:38:06.741Z,2.90
2019-06-08T11:40:34.092Z,2.40
2019-06-08T11:43:02.192Z,2.20
2019-06-08T11:45:29.580Z,2.17
2019-06-08T11:47:58.382Z,2.00
2019-06-08T11:50:34.995Z,1.83
2019-06-08T11:53:04.030Z,1.83
2019-06-08T11:55:31.323Z,2.33
2019-06-08T11:57:58.674Z,1.80
2019-06-08T12:00:41.199Z,1.97
2019-06-08T12:03:08.880Z,1.60
2019-06-08T12:05:36.511Z,1.90
2019-06-08T12:08:04.363Z,2.40
2019-06-08T12:10:32.103Z,1.50
2019-06-08T12:13:00.480Z,2.37
2019-06-08T12:15:28.653Z,2.10
2019-06-08T12:17:58.697Z,1.97
2019-06-08T12:20:24.636Z,1.50
2019-06-08T12:22:51.752Z,1.90
2019-06-08T12:25:19.399Z,1.90
2019-06-08T12:27:48.706Z,2.07
2019-06-08T12:30:21.722Z,2.10
2019-06-08T12:32:44.342Z,1.65
2019-06-08T12:35:12.409Z,2.37
2019-06-08T12:37:41.337Z,2.77
2019-06-08T12:40:11.699Z,2.07
2019-06-08T12:42:38.146Z,1.83
2019-06-08T12:45:07.282Z,2.43
2019-06-08T12:47:34.152Z,2.83
2019-06-08T12:50:02.163Z,2.90
2019-06-08T12:52:29.886Z,2.30
2019-06-08T12:55:06.124Z,2.73
2019-06-08T12:57:28.542Z,2.13
2019-06-08T12:59:59.848Z,2.27
2019-06-08T13:02:24.339Z,3.20
2019-06-08T13:04:52.127Z,2.30
2019-06-08T13:07:19.439Z,2.10
2019-06-08T13:09:48.312Z,2.93
2019-06-08T13:12:15.736Z,2.10
2019-06-08T13:14:44.163Z,2.03
2019-06-08T13:17:11.899Z,2.50
2019-06-08T13:19:40.347Z,2.27
2019-06-08T13:22:12.758Z,1.83
2019-06-08T13:24:39.531Z,2.10
2019-06-08T13:27:10.386Z,2.20
2019-06-08T13:29:36.387Z,2.77
2019-06-08T13:32:03.253Z,2.40
2019-06-08T13:34:30.522Z,2.80
2019-06-08T13:36:57.459Z,2.30
2019-06-08T13:39:24.523Z,2.23
2019-06-08T13:41:52.107Z,2.70
2019-06-08T13:44:19.880Z,2.20
2019-06-08T13:46:47.876Z,1.83
2019-06-08T13:49:16.229Z,1.93
2019-06-08T13:51:47.974Z,2.30
2019-06-08T13:54:15.187Z,2.67
2019-06-08T13:56:42.318Z,2.50
2019-06-08T13:59:08.945Z,2.83
2019-06-08T14:01:37.803Z,2.63
2019-06-08T14:04:04.799Z,3.40
2019-06-08T14:06:31.759Z,2.60
2019-06-08T14:08:58.408Z,3.40
2019-06-08T14:11:27.930Z,3.57
2019-06-08T14:13:54.630Z,3.40
2019-06-08T14:16:23.356Z,3.00
2019-06-08T14:18:52.523Z,2.27
2019-06-08T14:21:29.441Z,3.40
2019-06-08T14:23:51.929Z,2.10
2019-06-08T14:26:22.864Z,3.40
2019-06-08T14:28:50.404Z,3.93
2019-06-08T14:31:19.758Z,3.60
2019-06-08T14:33:48.423Z,3.60
2019-06-08T14:36:15.125Z,2.40
2019-06-08T14:38:42.373Z,2.10
2019-06-08T14:41:10.240Z,2.50
2019-06-08T14:43:38.133Z,2.50
2019-06-08T14:46:08.103Z,2.40
2019-06-08T14:48:34.877Z,3.53
2019-06-08T14:51:02.732Z,2.90
2019-06-08T14:53:29.493Z,3.20
2019-06-08T14:56:05.674Z,5.23
2019-06-08T14:58:29.297Z,2.53
2019-06-08T15:00:54.648Z,3.50
2019-06-08T15:03:21.590Z,2.50
2019-06-08T15:05:49.918Z,2.30
2019-06-08T15:08:17.545Z,3.80
2019-06-08T15:10:44.807Z,2.23
2019-06-08T15:13:13.571Z,2.77
2019-06-08T15:15:40.209Z,3.70
2019-06-08T15:18:11.237Z,2.80
2019-06-08T15:20:38.420Z,2.97
2019-06-08T15:23:07.929Z,3.00
2019-06-08T15:25:34.339Z,2.37
2019-06-08T15:28:01.727Z,2.20
2019-06-08T15:30:31.038Z,3.30
2019-06-08T15:32:58.723Z,2.43
2019-06-08T15:35:29.473Z,2.17
2019-06-08T15:37:58.527Z,2.87
2019-06-08T15:40:25.862Z,2.53
2019-06-08T15:42:54.259Z,2.53
2019-06-08T15:45:22.618Z,2.87
2019-06-08T15:47:49.473Z,2.50
2019-06-08T15:50:17.971Z,2.40
2019-06-08T15:52:45.159Z,2.70
2019-06-08T15:55:13.448Z,2.40
2019-06-08T15:57:41.107Z,2.10
2019-06-08T16:00:10.219Z,2.83
2019-06-08T16:02:38.461Z,2.30
2019-06-08T16:05:06.035Z,2.13
2019-06-08T16:07:34.255Z,2.70
2019-06-08T16:10:01.297Z,2.30
2019-06-08T16:12:30.606Z,1.87
2019-06-08T16:14:58.931Z,2.37
2019-06-08T16:17:25.583Z,2.27
2019-06-08T16:19:53.292Z,1.87
2019-06-08T16:22:20.510Z,1.90
2019-06-08T16:24:49.180Z,2.50
2019-06-08T16:27:15.844Z,2.33
2019-06-08T16:29:44.911Z,2.40
2019-06-08T16:32:11.883Z,2.60
2019-06-08T16:34:39.910Z,2.30
2019-06-08T16:37:07.137Z,2.37
2019-06-08T16:39:36.732Z,2.33
2019-06-08T16:42:03.845Z,2.80
2019-06-08T16:44:30.672Z,1.93
2019-06-08T16:46:57.645Z,2.00
2019-06-08T16:49:24.763Z,2.10
2019-06-08T16:51:51.506Z,2.70
2019-06-08T16:54:19.572Z,2.50
2019-06-08T16:56:46.517Z,3.00
2019-06-08T16:59:14.947Z,3.07
2019-06-08T17:01:41.978Z,2.23
2019-06-08T17:04:09.510Z,3.23
2019-06-08T17:06:37.374Z,2.90
2019-06-08T17:09:04.919Z,2.90
2019-06-08T17:11:33.724Z,2.97
2019-06-08T17:14:01.113Z,2.70
2019-06-08T17:16:29.989Z,3.37
2019-06-08T17:18:56.940Z,2.20
2019-06-08T17:21:25.168Z,2.20
2019-06-08T17:23:52.649Z,3.10
2019-06-08T17:26:19.952Z,2.17
2019-06-08T17:28:46.596Z,2.13
2019-06-08T17:31:13.739Z,2.37
2019-06-08T17:33:41.500Z,1.60
2019-06-08T17:36:08.426Z,1.87
2019-06-08T17:38:41.398Z,1.80
2019-06-08T17:41:08.625Z,2.07
2019-06-08T17:43:36.181Z,2.20
2019-06-08T17:46:03.782Z,1.93
2019-06-08T17:48:30.829Z,2.20
2019-06-08T17:50:58.245Z,2.00
2019-06-08T17:53:25.448Z,2.33
2019-06-08T17:55:52.576Z,2.63
2019-06-08T17:58:21.790Z,2.67
2019-06-08T18:00:49.303Z,3.57
2019-06-08T18:03:17.377Z,3.00
2019-06-08T18:05:45.622Z,2.23
2019-06-08T18:08:12.783Z,2.00
2019-06-08T18:10:42.828Z,2.40
2019-06-08T18:13:10.374Z,2.50
2019-06-08T18:15:39.124Z,2.00
2019-06-08T18:18:08.614Z,2.40
2019-06-08T18:20:36.867Z,3.20
2019-06-08T18:23:04.291Z,2.50
2019-06-08T18:25:32.265Z,2.53
2019-06-08T18:28:09.813Z,2.03
2019-06-08T18:30:28.143Z,2.00
2019-06-08T18:32:55.079Z,1.50
2019-06-08T18:35:21.723Z,1.47
2019-06-08T18:37:49.719Z,1.70
2019-06-08T18:40:18.545Z,1.70
2019-06-08T18:42:46.329Z,1.90
2019-06-08T18:45:18.008Z,1.70
2019-06-08T18:47:45.495Z,1.63
2019-06-08T18:50:12.375Z,1.47
2019-06-08T18:52:43.123Z,1.70
2019-06-08T18:55:08.879Z,1.30
2019-06-08T18:57:38.124Z,1.23
2019-06-08T19:00:09.161Z,1.20
2019-06-08T19:02:34.843Z,1.20
2019-06-08T19:05:01.460Z,1.43
2019-06-08T19:07:28.413Z,1.33
2019-06-08T19:09:58.144Z,2.30
2019-06-08T19:12:27.706Z,1.90
2019-06-08T19:14:54.451Z,1.60
2019-06-08T19:17:21.500Z,1.90
2019-06-08T19:19:51.977Z,1.40
2019-06-08T19:22:18.995Z,2.20
2019-06-08T19:24:49.429Z,2.30
2019-06-08T19:27:14.275Z,2.50
2019-06-08T19:29:42.139Z,1.83
2019-06-08T19:32:09.435Z,1.50
2019-06-08T19:34:39.152Z,1.83
2019-06-08T19:37:07.817Z,1.83
2019-06-08T19:39:33.875Z,2.37
2019-06-08T19:42:00.839Z,3.00
2019-06-08T19:44:27.793Z,2.30
2019-06-08T19:46:57.356Z,1.87
2019-06-08T19:49:23.827Z,2.40
2019-06-08T19:51:57.963Z,2.30
2019-06-08T19:54:24.379Z,2.40
2019-06-08T19:56:54.321Z,2.10
2019-06-08T19:59:21.148Z,1.53
2019-06-08T20:01:55.006Z,1.93
2019-06-08T20:04:18.861Z,2.00
2019-06-08T20:06:48.002Z,2.87
2019-06-08T20:09:14.443Z,2.03
2019-06-08T20:11:45.073Z,2.27
2019-06-08T20:14:12.351Z,2.27
2019-06-08T20:16:42.612Z,2.13
2019-06-08T20:19:09.937Z,3.40
2019-06-08T20:21:38.106Z,2.47
2019-06-08T20:24:07.481Z,2.27
2019-06-08T20:26:33.527Z,3.10
2019-06-08T20:29:12.240Z,2.40
2019-06-08T20:31:29.119Z,2.47
2019-06-08T20:33:57.616Z,2.20
2019-06-08T20:36:26.001Z,2.17
2019-06-08T20:38:53.920Z,2.50
2019-06-08T20:41:21.705Z,2.77
2019-06-08T20:43:50.460Z,2.90
2019-06-08T20:46:20.290Z,2.30
2019-06-08T20:48:50.014Z,2.30
2019-06-08T20:51:17.247Z,3.23
2019-06-08T20:53:44.484Z,2.27
2019-06-08T20:56:11.592Z,4.47
2019-06-08T20:58:38.614Z,2.23
2019-06-08T21:01:07.412Z,2.40
2019-06-08T21:03:35.997Z,2.40
2019-06-08T21:06:02.859Z,2.47
2019-06-08T21:08:29.532Z,5.13
2019-06-08T21:10:58.705Z,3.30
2019-06-08T21:13:27.454Z,2.20
2019-06-08T21:16:00.304Z,3.23
2019-06-08T21:18:27.598Z,3.00
2019-06-08T21:20:55.821Z,2.93
2019-06-08T21:23:23.079Z,2.50
2019-06-08T21:25:53.257Z,3.23
2019-06-08T21:28:19.574Z,2.90
2019-06-08T21:30:53.300Z,3.10
2019-06-08T21:33:17.728Z,3.30
2019-06-08T21:35:44.533Z,3.40
2019-06-08T21:38:23.351Z,3.37
2019-06-08T21:40:41.240Z,3.50
2019-06-08T21:43:09.123Z,2.90
2019-06-08T21:45:37.908Z,2.80
2019-06-08T21:48:04.659Z,2.87
2019-06-08T21:50:31.303Z,2.80
2019-06-08T21:53:00.090Z,3.20
2019-06-08T21:55:27.429Z,3.50
2019-06-08T21:57:56.523Z,2.80
2019-06-08T22:00:38.496Z,3.20
2019-06-08T22:02:58.464Z,3.03
2019-06-08T22:05:23.993Z,3.10
2019-06-08T22:07:52.564Z,3.10
2019-06-08T22:10:21.816Z,2.73
2019-06-08T22:12:50.757Z,3.60
2019-06-08T22:15:18.567Z,2.90
2019-06-08T22:17:47.624Z,2.57
2019-06-08T22:20:15.223Z,3.20
2019-06-08T22:22:42.571Z,4.33
2019-06-08T22:25:09.303Z,3.80
2019-06-08T22:27:38.236Z,2.73
2019-06-08T22:30:11.602Z,2.63
2019-06-08T22:32:34.577Z,2.77
2019-06-08T22:35:01.883Z,3.13
2019-06-08T22:37:29.602Z,2.80
2019-06-08T22:39:58.193Z,3.17
2019-06-08T22:42:25.832Z,3.57
2019-06-08T22:44:54.252Z,2.60
2019-06-08T22:47:21.738Z,3.30
2019-06-08T22:49:48.839Z,3.67
2019-06-08T22:52:18.487Z,3.00
2019-06-08T22:54:45.058Z,3.50
2019-06-08T22:57:11.675Z,2.90
2019-06-08T22:59:38.611Z,3.13
2019-06-08T23:02:06.441Z,2.90
2019-06-08T23:04:34.444Z,2.60
2019-06-08T23:07:04.353Z,2.70
2019-06-08T23:09:32.639Z,3.40
2019-06-08T23:12:01.848Z,2.83
2019-06-08T23:14:29.359Z,3.07
2019-06-08T23:16:59.572Z,3.37
2019-06-08T23:19:26.413Z,3.07
2019-06-08T23:21:55.242Z,3.10
2019-06-08T23:24:24.554Z,3.03
2019-06-08T23:26:51.551Z,2.53
2019-06-08T23:29:19.427Z,3.70
2019-06-08T23:31:47.888Z,3.20
2019-06-08T23:34:18.154Z,2.60
2019-06-08T23:36:55.013Z,2.60
2019-06-08T23:39:14.400Z,2.90
2019-06-08T23:41:41.430Z,3.20
2019-06-08T23:44:08.047Z,2.60
2019-06-08T23:46:35.119Z,2.60
2019-06-08T23:49:03.921Z,3.20
2019-06-08T23:51:30.740Z,2.60
2019-06-08T23:53:59.659Z,2.87
2019-06-08T23:56:27.771Z,2.77
2019-06-08T23:58:55.219Z,3.70
